createdAt,value
2019-04-07T00:01:56.413Z,36.50
2019-04-07T00:04:25.477Z,33.60
2019-04-07T00:06:54.443Z,31.67
2019-04-07T00:09:23.250Z,32.37
2019-04-07T00:11:51.946Z,33.37
2019-04-07T00:14:20.769Z,34.37
2019-04-07T00:16:49.544Z,30.97
2019-04-07T00:19:18.254Z,33.10
2019-04-07T00:21:56.700Z,30.97
2019-04-07T00:24:27.266Z,30.97
2019-04-07T00:26:59.110Z,31.63
2019-04-07T00:29:33.508Z,30.93
2019-04-07T00:32:11.357Z,31.23
2019-04-07T00:34:45.154Z,29.13
2019-04-07T00:37:16.200Z,32.80
2019-04-07T00:39:54.117Z,35.07
2019-04-07T00:42:24.723Z,31.17
2019-04-07T00:45:00.856Z,29.57
2019-04-07T00:47:35.100Z,32.90
2019-04-07T00:50:07.892Z,32.77
2019-04-07T01:48:10.621Z,27.97
2019-04-07T01:50:55.821Z,28.10
2019-04-07T01:53:25.905Z,28.77
2019-04-07T01:55:56.445Z,28.07
2019-04-07T01:58:32.845Z,30.23
2019-04-07T02:01:12.153Z,30.37
2019-04-07T02:03:51.246Z,30.00
2019-04-07T02:06:31.115Z,26.40
2019-04-07T02:09:01.809Z,32.07
2019-04-07T02:11:47.923Z,29.07
2019-04-07T02:14:17.993Z,28.63
2019-04-07T02:16:48.108Z,28.07
2019-04-07T02:19:27.010Z,28.90
2019-04-07T02:21:57.054Z,27.10
2019-04-07T02:24:28.337Z,30.17
2019-04-07T02:27:10.742Z,32.10
2019-04-07T02:29:40.854Z,25.90
2019-04-07T02:32:10.910Z,30.13
2019-04-07T02:34:57.483Z,28.87
2019-04-07T02:37:31.232Z,31.30
2019-04-07T02:40:07.643Z,29.60
2019-04-07T02:42:38.349Z,27.50
2019-04-07T02:45:10.968Z,28.40
2019-04-07T02:47:57.760Z,32.73
2019-04-07T02:50:27.909Z,27.80
2019-04-07T02:52:58.037Z,28.87
2019-04-07T02:55:28.564Z,29.13
2019-04-07T02:58:04.669Z,35.27
2019-04-07T03:00:37.937Z,27.67
2019-04-07T03:03:18.810Z,27.97
2019-04-07T03:05:49.632Z,29.77
2019-04-07T03:08:23.628Z,28.93
2019-04-07T03:11:02.078Z,29.37
2019-04-07T03:13:49.046Z,33.20
2019-04-07T03:16:24.983Z,33.60
2019-04-07T03:18:58.010Z,31.27
2019-04-07T03:21:33.671Z,36.07
2019-04-07T03:24:09.918Z,33.00
2019-04-07T03:26:48.518Z,34.63
2019-04-07T03:29:27.398Z,31.47
2019-04-07T03:32:06.213Z,28.63
2019-04-07T03:34:38.019Z,28.97
2019-04-07T03:37:34.335Z,31.87
2019-04-07T03:39:54.747Z,28.70
2019-04-07T03:42:27.545Z,31.40
2019-04-07T03:45:06.356Z,29.23
2019-04-07T03:47:37.529Z,32.90
2019-04-07T03:50:20.638Z,35.27
2019-04-07T03:52:51.077Z,31.00
2019-04-07T03:55:33.062Z,29.90
2019-04-07T03:58:12.409Z,33.33
2019-04-07T04:01:03.625Z,30.57
2019-04-07T04:03:34.332Z,32.73
2019-04-07T04:06:04.738Z,33.03
2019-04-07T04:08:38.316Z,31.80
2019-04-07T04:11:11.646Z,28.83
2019-04-07T04:13:42.298Z,29.50
2019-04-07T04:16:11.207Z,32.50
2019-04-07T04:18:40.555Z,28.50
2019-04-07T04:21:09.170Z,32.27
2019-04-07T04:23:41.319Z,30.27
2019-04-07T04:26:08.311Z,29.37
2019-04-07T04:28:36.887Z,31.83
2019-04-07T04:31:05.257Z,32.37
2019-04-07T04:33:33.707Z,32.43
2019-04-07T04:36:02.761Z,33.33
2019-04-07T04:38:31.822Z,29.63
2019-04-07T04:41:01.337Z,29.80
2019-04-07T04:43:29.904Z,31.73
2019-04-07T04:45:58.329Z,29.23
2019-04-07T04:48:27.663Z,32.33
2019-04-07T04:50:56.380Z,27.07
2019-04-07T04:53:25.614Z,27.30
2019-04-07T04:55:54.475Z,29.23
2019-04-07T04:58:28.833Z,32.50
2019-04-07T05:00:57.861Z,28.40
2019-04-07T05:03:27.199Z,30.27
2019-04-07T05:05:56.291Z,31.20
2019-04-07T05:08:24.869Z,29.00
2019-04-07T05:10:54.870Z,30.57
2019-04-07T05:13:23.262Z,29.30
2019-04-07T05:15:51.789Z,28.40
2019-04-07T05:18:20.197Z,34.57
2019-04-07T05:20:48.758Z,26.63
2019-04-07T05:23:18.008Z,28.40
2019-04-07T05:25:46.541Z,29.50
2019-04-07T05:28:15.412Z,28.93
2019-04-07T05:30:44.123Z,29.20
2019-04-07T05:33:13.433Z,29.83
2019-04-07T05:35:42.810Z,28.07
2019-04-07T05:38:11.384Z,27.93
2019-04-07T05:40:40.024Z,28.93
2019-04-07T05:43:08.561Z,30.27
2019-04-07T05:45:37.705Z,28.27
2019-04-07T05:48:06.458Z,26.43
2019-04-07T05:50:35.036Z,29.23
2019-04-07T05:53:04.167Z,24.53
2019-04-07T05:55:32.649Z,27.93
2019-04-07T05:58:03.434Z,30.73
2019-04-07T06:00:31.293Z,27.07
2019-04-07T06:03:04.546Z,31.03
2019-04-07T06:05:30.247Z,28.03
2019-04-07T06:08:00.866Z,27.77
2019-04-07T06:10:29.814Z,30.97
2019-04-07T06:12:59.565Z,28.00
2019-04-07T06:15:28.097Z,32.87
2019-04-07T06:18:00.603Z,32.50
2019-04-07T06:20:26.671Z,30.70
2019-04-07T06:22:55.115Z,32.43
2019-04-07T06:25:23.526Z,30.90
2019-04-07T06:27:51.952Z,28.13
2019-04-07T06:30:20.995Z,31.90
2019-04-07T06:32:49.419Z,28.53
2019-04-07T06:35:18.273Z,33.50
2019-04-07T06:37:47.590Z,32.30
2019-04-07T06:40:20.467Z,32.00
2019-04-07T06:42:46.365Z,42.83
2019-04-07T06:45:20.598Z,35.43
2019-04-07T06:47:48.679Z,33.50
2019-04-07T06:50:44.853Z,34.73
2019-04-07T06:53:18.671Z,33.63
2019-04-07T06:56:02.121Z,37.13
2019-04-07T06:58:43.833Z,36.00
2019-04-07T07:01:25.737Z,35.13
2019-04-07T07:04:13.163Z,35.87
2019-04-07T07:06:46.069Z,35.67
2019-04-07T07:09:30.868Z,36.83
2019-04-07T07:12:06.565Z,35.33
2019-04-07T07:14:49.558Z,35.67
2019-04-07T07:17:22.529Z,34.43
2019-04-07T07:20:07.950Z,33.40
2019-04-07T07:22:46.700Z,35.80
2019-04-07T07:25:14.694Z,33.73
2019-04-07T07:27:43.173Z,32.13
2019-04-07T07:30:12.180Z,35.60
2019-04-07T07:32:40.977Z,34.03
2019-04-07T07:35:12.592Z,37.23
2019-04-07T07:37:40.118Z,31.37
2019-04-07T07:40:10.022Z,30.27
2019-04-07T07:42:38.470Z,34.77
2019-04-07T07:45:11.815Z,27.67
2019-04-07T07:47:39.169Z,28.87
2019-04-07T07:50:08.827Z,30.53
2019-04-07T07:52:37.676Z,30.33
2019-04-07T07:55:07.783Z,27.60
2019-04-07T07:57:37.032Z,29.47
2019-04-07T08:00:07.538Z,26.83
2019-04-07T08:02:36.817Z,30.53
2019-04-07T08:05:07.136Z,29.50
2019-04-07T08:07:35.912Z,31.07
2019-04-07T08:10:07.381Z,31.63
2019-04-07T08:12:35.955Z,29.07
2019-04-07T08:15:06.987Z,32.67
2019-04-07T08:17:35.714Z,30.80
2019-04-07T08:20:06.651Z,30.53
2019-04-07T08:22:40.737Z,29.97
2019-04-07T08:25:06.601Z,29.63
2019-04-07T08:27:35.487Z,29.07
2019-04-07T08:30:10.067Z,27.60
2019-04-07T08:32:36.845Z,27.30
2019-04-07T08:35:07.966Z,29.40
2019-04-07T08:37:36.565Z,25.27
2019-04-07T08:40:07.671Z,21.00
2019-04-07T08:42:36.953Z,18.70
2019-04-07T08:45:08.152Z,17.43
2019-04-07T08:47:36.638Z,17.80
2019-04-07T08:50:08.445Z,20.47
2019-04-07T08:52:40.755Z,19.87
2019-04-07T08:55:08.280Z,17.40
2019-04-07T08:57:37.420Z,17.93
2019-04-07T09:00:15.065Z,13.83
2019-04-07T09:02:40.548Z,14.03
2019-04-07T09:05:12.946Z,16.10
2019-04-07T09:07:42.258Z,16.47
2019-04-07T09:10:17.041Z,17.33
2019-04-07T09:12:44.015Z,18.77
2019-04-07T09:15:14.282Z,13.60
2019-04-07T09:17:46.645Z,13.13
2019-04-07T09:20:16.176Z,14.07
2019-04-07T09:22:54.971Z,14.27
2019-04-07T09:25:27.339Z,14.40
2019-04-07T09:28:03.585Z,17.07
2019-04-07T09:30:36.816Z,19.20
2019-04-07T09:33:16.004Z,17.80
2019-04-07T09:35:59.393Z,18.00
2019-04-07T09:38:29.534Z,20.40
2019-04-07T09:41:16.687Z,18.50
2019-04-07T09:43:47.262Z,19.20
2019-04-07T09:46:26.454Z,21.47
2019-04-07T09:49:02.266Z,22.13
2019-04-07T09:51:49.413Z,20.40
2019-04-07T09:54:23.379Z,21.37
2019-04-07T09:57:04.490Z,20.80
2019-04-07T09:59:37.571Z,20.05
2019-04-07T10:02:17.080Z,19.57
2019-04-07T10:05:03.856Z,19.85
2019-04-07T10:07:43.781Z,18.57
2019-04-07T10:10:14.928Z,24.37
2019-04-07T10:13:03.363Z,14.53
2019-04-07T10:15:39.638Z,15.40
2019-04-07T10:18:25.942Z,15.13
2019-04-07T10:21:05.332Z,13.05
2019-04-07T10:23:50.884Z,11.88
2019-04-07T10:26:24.393Z,12.73
2019-04-07T10:28:55.197Z,13.15
2019-04-07T10:31:25.378Z,13.40
2019-04-07T10:33:56.195Z,13.85
2019-04-07T10:36:27.050Z,14.50
2019-04-07T10:39:15.324Z,14.90
2019-04-07T10:41:55.310Z,15.68
2019-04-07T10:44:43.635Z,15.23
2019-04-07T10:47:23.503Z,19.92
2019-04-07T10:50:02.414Z,31.80
2019-04-07T10:52:28.309Z,25.15
2019-04-07T10:55:14.199Z,18.37
2019-04-07T10:57:59.829Z,21.37
2019-04-07T11:00:50.655Z,15.38
2019-04-07T11:03:36.262Z,15.15
2019-04-07T11:06:24.659Z,14.23
2019-04-07T11:08:55.455Z,16.73
2019-04-07T11:11:42.143Z,15.30
2019-04-07T11:14:12.259Z,14.98
2019-04-07T11:16:48.558Z,18.05
2019-04-07T11:19:21.681Z,15.53
2019-04-07T11:21:51.780Z,15.20
2019-04-07T11:24:22.127Z,16.07
2019-04-07T11:26:52.715Z,16.97
2019-04-07T11:29:39.660Z,16.52
2019-04-07T11:32:28.136Z,21.80
2019-04-07T11:35:04.980Z,15.15
2019-04-07T11:37:50.261Z,14.98
2019-04-07T11:40:21.030Z,12.63
2019-04-07T11:42:51.242Z,38.28
2019-04-07T11:45:53.297Z,21.30
2019-04-07T11:48:17.593Z,30.33
2019-04-07T11:50:50.753Z,15.47
2019-04-07T11:53:24.155Z,15.87
2019-04-07T11:56:03.403Z,15.65
2019-04-07T11:58:48.733Z,13.78
2019-04-07T12:01:21.580Z,16.23
2019-04-07T12:04:08.720Z,13.35
2019-04-07T12:06:48.162Z,12.53
2019-04-07T12:09:17.551Z,12.23
2019-04-07T12:12:04.796Z,13.13
2019-04-07T12:14:53.148Z,14.65
2019-04-07T12:17:25.607Z,11.80
2019-04-07T12:19:59.158Z,11.97
2019-04-07T12:22:31.715Z,10.65
2019-04-07T12:25:17.919Z,10.93
2019-04-07T12:28:04.332Z,14.70
2019-04-07T12:30:37.980Z,10.98
2019-04-07T12:33:09.028Z,14.03
2019-04-07T12:35:39.903Z,13.17
2019-04-07T12:38:22.929Z,14.57
2019-04-07T12:40:59.502Z,11.70
2019-04-07T12:43:31.091Z,101.37
2019-04-07T12:46:01.354Z,12.70
2019-04-07T12:48:38.061Z,49.03
2019-04-07T12:51:08.462Z,14.43
2019-04-07T12:53:41.187Z,14.23
2019-04-07T12:56:33.329Z,17.67
2019-04-07T12:59:07.979Z,20.67
2019-04-07T13:01:38.253Z,24.43
2019-04-07T13:04:23.385Z,15.20
2019-04-07T13:07:02.422Z,14.20
2019-04-07T13:09:38.456Z,19.17
2019-04-07T13:12:25.842Z,13.50
2019-04-07T13:14:59.036Z,12.23
2019-04-07T13:17:38.254Z,12.30
2019-04-07T13:20:22.316Z,20.50
2019-04-07T13:22:53.121Z,11.93
2019-04-07T13:25:24.263Z,12.50
2019-04-07T13:28:08.134Z,16.17
2019-04-07T13:30:39.115Z,16.53
2019-04-07T13:33:21.691Z,10.13
2019-04-07T13:36:05.022Z,11.83
2019-04-07T13:38:35.256Z,17.57
2019-04-07T13:41:23.722Z,15.70
2019-04-07T13:44:07.123Z,13.93
2019-04-07T13:46:44.373Z,10.47
2019-04-07T13:49:32.060Z,12.77
2019-04-07T13:52:20.342Z,11.87
2019-04-07T13:54:49.412Z,13.17
2019-04-07T13:57:34.952Z,9.53
2019-04-07T14:00:21.710Z,9.63
2019-04-07T14:02:51.946Z,14.47
2019-04-07T14:05:28.103Z,11.47
2019-04-07T14:07:58.915Z,10.43
2019-04-07T14:10:45.031Z,10.77
2019-04-07T14:13:21.049Z,11.40
2019-04-07T14:15:54.018Z,8.73
2019-04-07T14:18:36.715Z,11.97
2019-04-07T14:21:23.583Z,11.73
2019-04-07T14:23:57.229Z,11.23
2019-04-07T14:26:31.231Z,13.40
2019-04-07T14:29:16.961Z,9.30
2019-04-07T14:31:53.409Z,9.57
2019-04-07T14:34:35.211Z,9.60
2019-04-07T14:37:20.629Z,9.50
2019-04-07T14:40:01.060Z,9.37
2019-04-07T14:42:34.140Z,9.87
2019-04-07T14:45:07.776Z,9.90
2019-04-07T14:47:38.205Z,7.17
2019-04-07T14:50:14.587Z,8.20
2019-04-07T14:52:53.704Z,9.13
2019-04-07T14:55:31.565Z,8.30
2019-04-07T14:58:19.003Z,7.03
2019-04-07T15:00:52.330Z,8.17
2019-04-07T15:03:21.425Z,8.67
2019-04-07T15:05:56.506Z,7.90
2019-04-07T15:08:30.381Z,9.27
2019-04-07T15:11:02.680Z,10.27
2019-04-07T15:13:32.106Z,10.60
2019-04-07T15:16:00.618Z,10.10
2019-04-07T15:18:29.800Z,9.67
2019-04-07T15:20:58.257Z,10.67
2019-04-07T15:23:29.455Z,9.30
2019-04-07T15:25:56.885Z,8.93
2019-04-07T15:28:25.290Z,9.10
2019-04-07T15:30:53.761Z,8.37
2019-04-07T15:33:22.401Z,10.93
2019-04-07T15:35:50.858Z,9.63
2019-04-07T15:38:22.989Z,9.00
2019-04-07T15:40:49.529Z,9.50
2019-04-07T15:43:17.956Z,8.67
2019-04-07T15:45:46.941Z,9.50
2019-04-07T15:48:15.424Z,9.70
2019-04-07T15:50:43.852Z,8.03
2019-04-07T15:53:14.981Z,10.10
2019-04-07T15:55:49.889Z,7.87
2019-04-07T15:58:13.468Z,7.73
2019-04-07T16:00:42.043Z,9.87
2019-04-07T16:03:12.705Z,9.10
2019-04-07T16:05:43.812Z,8.13
2019-04-07T16:08:11.665Z,10.03
2019-04-07T16:10:41.412Z,9.17
2019-04-07T16:13:10.839Z,10.60
2019-04-07T16:15:42.584Z,9.20
2019-04-07T16:18:10.512Z,9.27
2019-04-07T16:20:40.376Z,10.00
2019-04-07T16:23:10.204Z,10.87
2019-04-07T16:25:40.457Z,8.00
2019-04-07T16:28:13.124Z,10.13
2019-04-07T16:30:39.495Z,9.43
2019-04-07T16:33:08.794Z,9.47
2019-04-07T16:35:37.296Z,9.70
2019-04-07T16:38:05.815Z,9.20
2019-04-07T16:40:35.013Z,8.33
2019-04-07T16:43:12.451Z,9.13
2019-04-07T16:45:33.922Z,9.50
2019-04-07T16:48:04.742Z,9.70
2019-04-07T16:50:32.678Z,11.70
2019-04-07T16:53:03.584Z,9.27
2019-04-07T16:55:34.905Z,6.80
2019-04-07T16:58:03.543Z,10.40
2019-04-07T17:00:32.403Z,8.27
2019-04-07T17:03:01.298Z,8.70
2019-04-07T17:05:30.227Z,7.97
2019-04-07T17:07:59.468Z,9.90
2019-04-07T17:10:32.320Z,8.23
2019-04-07T17:13:00.407Z,9.37
2019-04-07T17:15:28.488Z,11.80
2019-04-07T17:17:57.030Z,12.33
2019-04-07T17:20:27.189Z,12.67
2019-04-07T17:22:56.785Z,10.90
2019-04-07T17:25:25.584Z,14.07
2019-04-07T17:27:54.060Z,14.27
2019-04-07T17:30:25.333Z,14.90
2019-04-07T17:32:53.343Z,11.20
2019-04-07T17:35:21.817Z,13.70
2019-04-07T17:37:50.926Z,10.20
2019-04-07T17:40:21.511Z,10.90
2019-04-07T17:42:52.776Z,11.43
2019-04-07T17:45:38.109Z,10.70
2019-04-07T17:48:24.536Z,11.87
2019-04-07T17:51:08.411Z,12.27
2019-04-07T17:53:41.386Z,13.43
2019-04-07T17:56:16.595Z,13.57
2019-04-07T17:58:45.681Z,13.23
2019-04-07T18:01:25.067Z,13.70
2019-04-07T18:04:15.490Z,16.27
2019-04-07T18:06:49.510Z,13.50
2019-04-07T18:09:28.459Z,15.47
2019-04-07T18:12:13.923Z,13.20
2019-04-07T18:15:00.684Z,14.47
2019-04-07T18:17:48.562Z,13.80
2019-04-07T18:20:36.333Z,15.50
2019-04-07T18:23:09.917Z,14.47
2019-04-07T18:25:46.439Z,41.17
2019-04-07T18:28:26.177Z,13.70
2019-04-07T18:31:13.279Z,13.73
2019-04-07T18:34:01.411Z,14.07
2019-04-07T18:36:42.518Z,14.93
2019-04-07T18:39:15.933Z,12.83
2019-04-07T18:42:04.100Z,19.10
2019-04-07T18:44:48.740Z,15.63
2019-04-07T18:47:27.542Z,13.90
2019-04-07T18:50:04.065Z,15.53
2019-04-07T18:52:53.334Z,20.17
2019-04-07T18:55:27.324Z,21.10
2019-04-07T18:58:15.360Z,16.90
2019-04-07T19:00:45.739Z,21.67
2019-04-07T19:03:35.072Z,17.47
2019-04-07T19:06:14.821Z,17.90
2019-04-07T19:08:54.371Z,21.90
2019-04-07T19:11:26.144Z,17.60
2019-04-07T19:14:30.626Z,19.97
2019-04-07T19:16:47.065Z,22.10
2019-04-07T19:19:36.832Z,20.33
2019-04-07T19:22:19.687Z,25.27
2019-04-07T19:25:11.194Z,32.23
2019-04-07T19:28:03.469Z,28.80
2019-04-07T19:30:53.391Z,29.77
2019-04-07T19:33:59.832Z,33.23
2019-04-07T19:36:35.849Z,34.93
2019-04-07T19:39:12.586Z,36.47
2019-04-07T19:42:06.915Z,36.17
2019-04-07T19:44:53.615Z,35.90
2019-04-07T19:47:37.171Z,38.20
2019-04-07T19:50:27.020Z,41.27
2019-04-07T19:53:00.980Z,35.70
2019-04-07T19:55:46.501Z,37.00
2019-04-07T19:58:26.391Z,42.60
2019-04-07T20:01:01.657Z,39.73
2019-04-07T20:03:47.979Z,38.90
2019-04-07T20:06:34.166Z,36.67
2019-04-07T20:09:07.688Z,40.63
2019-04-07T20:11:37.522Z,45.07
2019-04-07T20:14:23.841Z,40.93
2019-04-07T20:16:53.934Z,43.23
2019-04-07T20:19:27.881Z,40.87
2019-04-07T20:21:58.184Z,42.60
2019-04-07T20:24:36.730Z,40.80
2019-04-07T20:27:06.633Z,41.50
2019-04-07T20:29:42.372Z,40.00
2019-04-07T20:32:25.291Z,43.67
2019-04-07T20:35:01.231Z,43.77
2019-04-07T20:37:32.283Z,41.67
2019-04-07T20:40:05.366Z,47.50
2019-04-07T20:42:39.772Z,46.23
2019-04-07T20:45:21.555Z,50.03
2019-04-07T20:47:52.215Z,47.87
2019-04-07T20:50:31.319Z,46.07
2019-04-07T20:53:22.862Z,46.37
2019-04-07T20:56:00.796Z,49.17
2019-04-07T20:58:55.508Z,48.00
2019-04-07T21:01:28.683Z,48.73
2019-04-07T21:04:06.385Z,47.73
2019-04-07T21:06:45.575Z,56.30
2019-04-07T21:09:31.613Z,48.70
2019-04-07T21:12:03.038Z,47.50
2019-04-07T21:14:45.376Z,49.37
2019-04-07T21:17:32.566Z,48.73
2019-04-07T21:20:10.918Z,53.30
2019-04-07T21:22:56.089Z,49.03
2019-04-07T21:25:35.275Z,52.40
2019-04-07T21:28:11.091Z,52.60
2019-04-07T21:30:42.976Z,53.13
2019-04-07T21:33:32.432Z,53.00
2019-04-07T21:36:10.314Z,50.93
2019-04-07T21:38:41.161Z,52.13
2019-04-07T21:41:21.031Z,53.93
2019-04-07T21:44:03.405Z,52.27
2019-04-07T21:46:42.951Z,51.53
2019-04-07T21:49:13.856Z,50.90
2019-04-07T21:51:48.221Z,46.87
2019-04-07T21:54:18.367Z,44.77
2019-04-07T21:56:48.419Z,49.93
2019-04-07T21:59:19.965Z,48.43
2019-04-07T22:01:55.953Z,49.40
2019-04-07T22:04:44.477Z,45.47
2019-04-07T22:07:32.868Z,43.83
2019-04-07T22:10:01.442Z,44.03
2019-04-07T22:12:30.705Z,41.00
2019-04-07T22:15:00.270Z,37.60
2019-04-07T22:17:32.735Z,39.73
2019-04-07T22:19:59.032Z,36.67
2019-04-07T22:22:27.720Z,36.10
2019-04-07T22:24:56.733Z,35.90
2019-04-07T22:27:27.312Z,35.07
2019-04-07T22:29:55.436Z,31.13
2019-04-07T22:32:24.373Z,35.23
2019-04-07T22:34:52.970Z,40.00
2019-04-07T22:37:22.474Z,32.50
2019-04-07T22:39:52.680Z,29.17
2019-04-07T22:42:22.390Z,28.97
2019-04-07T22:44:53.677Z,27.53
2019-04-07T22:47:22.405Z,27.73
2019-04-07T22:49:51.325Z,27.70
2019-04-07T22:52:20.547Z,26.87
2019-04-07T22:54:49.840Z,25.53
2019-04-07T22:57:18.354Z,29.50
2019-04-07T22:59:47.180Z,27.03
2019-04-07T23:02:15.968Z,25.57
2019-04-07T23:04:44.794Z,24.73
2019-04-07T23:07:13.800Z,27.37
2019-04-07T23:09:42.179Z,28.30
2019-04-07T23:12:10.682Z,25.30
2019-04-07T23:14:40.040Z,25.83
2019-04-07T23:17:08.733Z,27.43
2019-04-07T23:19:37.867Z,28.67
2019-04-07T23:22:06.540Z,27.27
2019-04-07T23:24:35.051Z,25.17
2019-04-07T23:27:04.128Z,27.70
2019-04-07T23:29:32.721Z,24.83
2019-04-07T23:32:01.851Z,22.90
2019-04-07T23:34:31.101Z,22.73
2019-04-07T23:36:59.777Z,21.60
2019-04-07T23:39:29.188Z,18.00
2019-04-07T23:41:58.600Z,24.27
2019-04-07T23:44:27.710Z,20.90
2019-04-07T23:46:57.107Z,19.53
2019-04-07T23:49:26.149Z,19.00
2019-04-07T23:51:55.240Z,20.23
2019-04-07T23:54:24.807Z,20.10
2019-04-07T23:56:54.135Z,19.77
2019-04-07T23:59:22.884Z,18.13
